Time;durP1;ratioP1;P1;durP2;ratioP2;P2;SDS_P1;SDS_P2;PMS_P1;PMS_P2;Temp;Humidity;BMP_temperature;BMP_pressure;BME280_temperature;BME280_humidity;BME280_pressure;Samples;Min_cycle;Max_cycle;Signal;HPM_P1;HPM_P2
2022/04/26 03:36:59;;;;;;;15.65;10.00;;;;;;;8.38;nan;100254.25;5093409;28;20489;-70
2022/04/26 03:39:25;;;;;;;12.77;8.85;;;;;;;8.41;nan;100251.25;5091852;28;20097;-70
2022/04/26 03:41:51;;;;;;;12.95;9.35;;;;;;;8.42;nan;100255.47;5096178;28;20024;-70
2022/04/26 03:44:16;;;;;;;17.05;9.40;;;;;;;8.47;nan;100255.63;5076281;28;20032;-70
2022/04/26 03:46:42;;;;;;;14.88;9.20;;;;;;;8.36;nan;100235.31;5092082;28;20051;-70
2022/04/26 03:49:07;;;;;;;14.38;8.75;;;;;;;8.52;nan;100268.91;5092297;28;20076;-68
2022/04/26 03:51:33;;;;;;;14.60;8.85;;;;;;;8.49;nan;100274.59;5091981;28;20180;-68
2022/04/26 03:53:58;;;;;;;10.50;8.35;;;;;;;8.41;nan;100267.00;5092311;28;20047;-69
2022/04/26 03:56:24;;;;;;;15.63;9.23;;;;;;;8.19;nan;100246.34;5092922;28;20485;-68
2022/04/26 03:58:49;;;;;;;11.50;8.65;;;;;;;8.28;nan;100271.31;5092990;28;20095;-68
2022/04/26 04:01:15;;;;;;;12.73;9.68;;;;;;;8.34;nan;100284.59;5092342;28;20028;-69
2022/04/26 04:03:41;;;;;;;15.77;8.88;;;;;;;8.21;nan;100277.59;5092262;28;20036;-69
2022/04/26 04:06:06;;;;;;;16.33;9.02;;;;;;;8.20;nan;100278.63;5093042;28;20036;-70
2022/04/26 04:08:32;;;;;;;12.35;8.88;;;;;;;8.28;nan;100291.47;5092595;28;20036;-69
2022/04/26 04:10:57;;;;;;;16.35;9.43;;;;;;;8.33;nan;100299.50;5090184;28;20055;-69
2022/04/26 04:13:23;;;;;;;14.20;9.70;;;;;;;8.33;nan;100302.13;5074733;28;20040;-69
2022/04/26 04:15:48;;;;;;;16.33;9.30;;;;;;;8.41;nan;100308.97;5069510;28;20044;-70
2022/04/26 04:21:00;;;;;;;12.10;8.73;;;;;;;8.45;nan;100316.22;5076845;28;20036;-66
2022/04/26 04:23:26;;;;;;;18.60;8.90;;;;;;;8.42;nan;100303.50;5074213;28;20036;-69
2022/04/26 04:25:51;;;;;;;14.35;8.88;;;;;;;8.34;nan;100284.59;5077543;28;20045;-68
2022/04/26 04:28:17;;;;;;;13.73;8.80;;;;;;;8.51;nan;100317.19;5095381;28;20072;-69
2022/04/26 04:30:42;;;;;;;20.48;9.52;;;;;;;8.50;nan;100310.34;5079223;28;20032;-70
2022/04/26 04:33:08;;;;;;;12.98;8.85;;;;;;;8.45;nan;100307.53;5080825;28;20039;-70
2022/04/26 04:35:34;;;;;;;15.43;8.55;;;;;;;8.55;nan;100314.91;5077106;28;20043;-71
2022/04/26 04:37:59;;;;;;;14.27;8.75;;;;;;;8.62;nan;100319.13;5084340;28;20028;-69
2022/04/26 04:40:25;;;;;;;15.93;9.00;;;;;;;8.63;nan;100320.72;5077188;28;20393;-70
2022/04/26 04:42:50;;;;;;;14.25;8.85;;;;;;;8.66;nan;100314.22;5076316;28;20056;-69
2022/04/26 04:45:16;;;;;;;13.68;8.45;;;;;;;8.87;nan;100328.81;5085542;28;20181;-70
2022/04/26 04:47:41;;;;;;;15.93;9.05;;;;;;;8.88;nan;100328.59;5081531;28;20783;-69
2022/04/26 04:50:07;;;;;;;15.85;8.30;;;;;;;9.02;nan;100341.59;5083351;28;20055;-69
2022/04/26 04:52:32;;;;;;;12.02;8.45;;;;;;;9.07;nan;100334.69;5079746;28;20465;-68
2022/04/26 04:54:58;;;;;;;15.50;8.38;;;;;;;9.20;nan;100348.75;5077287;28;20043;-68
2022/04/26 04:57:25;;;;;;;14.68;8.02;;;;;;;9.21;nan;100335.38;5084668;28;20044;-71
2022/04/26 04:59:50;;;;;;;12.38;8.63;;;;;;;9.30;nan;100341.94;5071106;28;20032;-69
2022/04/26 05:02:16;;;;;;;17.15;7.93;;;;;;;9.43;nan;100348.88;5071564;28;20417;-69
2022/04/26 05:04:42;;;;;;;17.73;7.70;;;;;;;9.42;nan;100335.97;5068904;28;20044;-70
2022/04/26 05:07:09;;;;;;;12.02;7.25;;;;;;;9.46;nan;100337.94;5071103;28;20040;-71
2022/04/26 05:09:34;;;;;;;11.20;8.00;;;;;;;9.55;nan;100341.91;5073588;28;20043;-71
2022/04/26 05:12:00;;;;;;;14.68;7.40;;;;;;;9.64;nan;100339.75;5071166;28;20033;-71
2022/04/26 05:14:25;;;;;;;17.77;7.82;;;;;;;9.69;nan;100347.00;5074236;28;20041;-69
2022/04/26 05:16:51;;;;;;;16.15;7.75;;;;;;;9.80;nan;100360.22;5083658;28;20055;-68
2022/04/26 05:19:16;;;;;;;9.80;6.97;;;;;;;9.81;nan;100353.13;5103545;28;20028;-66
2022/04/26 05:21:42;;;;;;;11.20;8.00;;;;;;;9.98;nan;100354.13;5094213;28;20039;-68
2022/04/26 05:26:51;;;;;;;13.35;7.40;;;;;;;10.15;nan;100356.97;5102326;28;20021;-69
2022/04/26 05:29:16;;;;;;;13.20;7.75;;;;;;;10.21;nan;100342.09;5082732;28;20076;-69
2022/04/26 05:31:42;;;;;;;9.93;7.50;;;;;;;10.26;nan;100346.69;5100948;28;20040;-69
2022/04/26 05:34:07;;;;;;;11.15;7.38;;;;;;;10.48;nan;100362.81;5082515;28;20032;-68
2022/04/26 05:36:33;;;;;;;14.90;7.88;;;;;;;10.55;nan;100358.25;5083597;28;20040;-67
2022/04/26 05:39:00;;;;;;;12.80;6.72;;;;;;;10.49;nan;100356.53;5087462;28;20034;-68
2022/04/26 05:41:25;;;;;;;10.32;7.00;;;;;;;;;;5078433;28;20156;-68
2022/04/26 05:43:50;;;;;;;14.00;6.97;;;;;;;;;;5086852;28;20037;-71
2022/04/26 05:46:16;;;;;;;9.57;6.93;;;;;;;;;;5075779;28;20565;-70
2022/04/26 05:48:41;;;;;;;9.73;6.20;;;;;;;;;;5064950;28;20119;-68
2022/04/26 05:51:06;;;;;;;10.33;6.70;;;;;;;;;;5070016;28;20269;-68
2022/04/26 05:53:31;;;;;;;11.25;6.55;;;;;;;;;;5068127;28;20280;-68
2022/04/26 05:55:57;;;;;;;9.93;6.07;;;;;;;;;;5070272;28;20109;-68
2022/04/26 05:58:22;;;;;;;10.88;6.45;;;;;;;;;;5067548;28;20277;-68
2022/04/26 06:00:47;;;;;;;8.77;6.57;;;;;;;;;;5052411;28;20033;-67
2022/04/26 06:03:13;;;;;;;10.50;6.90;;;;;;;;;;5090688;28;20308;-68
2022/04/26 06:05:38;;;;;;;8.57;6.45;;;;;;;;;;5089512;28;20268;-68
2022/04/26 06:08:04;;;;;;;11.32;7.22;;;;;;;;;;5087215;28;20028;-68
2022/04/26 06:10:30;;;;;;;12.75;6.80;;;;;;;;;;5083074;28;20490;-68
2022/04/26 06:12:55;;;;;;;9.50;6.43;;;;;;;11.67;nan;100429.34;5088179;28;20051;-68
2022/04/26 06:15:21;;;;;;;8.73;6.80;;;;;;;;;;5070184;28;20334;-69
2022/04/26 06:17:46;;;;;;;12.43;6.78;;;;;;;;;;5070684;28;20028;-69
2022/04/26 06:20:12;;;;;;;11.23;7.28;;;;;;;;;;5071279;28;20041;-68
2022/04/26 06:22:37;;;;;;;253.03;87.90;;;;;;;;;;5072259;28;20064;-68
2022/04/26 06:25:02;;;;;;;30.40;19.77;;;;;;;;;;5074369;28;20265;-68
2022/04/26 06:27:28;;;;;;;11.15;7.63;;;;;;;;;;5069462;28;20060;-68
2022/04/26 06:29:53;;;;;;;11.47;7.13;;;;;;;;;;5066196;28;20545;-68
2022/04/26 06:32:19;;;;;;;11.17;7.40;;;;;;;;;;5074082;28;20036;-68
2022/04/26 06:34:45;;;;;;;11.68;7.50;;;;;;;12.48;nan;100445.25;5072790;28;20269;-67
2022/04/26 06:37:12;;;;;;;9.73;7.45;;;;;;;;;;5074600;28;20036;-68
2022/04/26 06:39:38;;;;;;;13.13;7.95;;;;;;;;;;5073526;28;20056;-68
2022/04/26 06:42:03;;;;;;;13.37;8.30;;;;;;;;;;5074450;28;20482;-68
2022/04/26 06:44:28;;;;;;;12.73;8.48;;;;;;;;;;5074243;28;20266;-67
2022/04/26 06:46:54;;;;;;;12.70;8.40;;;;;;;;;;5073015;28;20039;-68
2022/04/26 06:49:19;;;;;;;13.87;8.87;;;;;;;;;;5073368;28;20032;-68
2022/04/26 06:51:44;;;;;;;13.60;8.30;;;;;;;;;;5074312;28;21122;-68
2022/04/26 06:54:12;;;;;;;15.95;8.90;;;;;;;;;;5071929;28;20037;-68
2022/04/26 06:56:40;;;;;;;17.77;9.00;;;;;;;;;;5066885;28;20488;-68
2022/04/26 06:59:05;;;;;;;15.27;9.60;;;;;;;;;;5074404;28;20040;-67
2022/04/26 07:01:30;;;;;;;21.50;9.77;;;;;;;;;;5073813;28;20082;-68
2022/04/26 07:03:56;;;;;;;13.50;9.37;;;;;;;;;;5073866;28;20505;-68
2022/04/26 07:06:21;;;;;;;16.73;9.13;;;;;;;;;;5074074;28;20300;-68
2022/04/26 07:08:47;;;;;;;14.87;9.63;;;;;;;;;;5064316;28;20685;-71
2022/04/26 07:11:14;;;;;;;19.15;9.70;;;;;;;;;;5070846;28;20273;-70
2022/04/26 07:13:39;;;;;;;15.45;9.93;;;;;;;;;;5070517;28;20048;-70
2022/04/26 07:16:05;;;;;;;15.88;8.93;;;;;;;;;;5013706;28;20908;-67
2022/04/26 07:18:31;;;;;;;14.63;9.15;;;;;;;;;;5051515;28;20090;-69
2022/04/26 07:20:57;;;;;;;14.35;8.60;;;;;;;;;;5061739;28;20032;-68
2022/04/26 07:23:22;;;;;;;16.77;8.70;;;;;;;;;;5062535;28;20052;-68
2022/04/26 07:25:48;;;;;;;14.10;9.18;;;;;;;;;;5061200;28;20534;-69
2022/04/26 07:28:13;;;;;;;16.48;9.45;;;;;;;;;;5073167;28;20062;-68
2022/04/26 07:30:39;;;;;;;13.48;9.45;;;;;;;;;;5084225;28;20032;-69
2022/04/26 07:35:50;;;;;;;12.65;8.55;;;;;;;;;;5072221;28;20445;-69
2022/04/26 07:38:15;;;;;;;14.15;9.18;;;;;;;;;;5072273;28;20119;-69
2022/04/26 07:40:41;;;;;;;14.07;8.52;;;;;;;;;;5075955;28;20036;-69
2022/04/26 07:43:06;;;;;;;17.30;8.35;;;;;;;14.91;nan;100454.41;5073948;28;20036;-69
2022/04/26 07:45:31;;;;;;;11.88;7.90;;;;;;;;;;5058499;28;20065;-68
2022/04/26 07:47:58;;;;;;;14.98;7.72;;;;;;;;;;5071977;28;20093;-68
2022/04/26 07:50:24;;;;;;;14.00;7.63;;;;;;;;;;5070791;28;20093;-69
2022/04/26 07:52:50;;;;;;;11.65;7.75;;;;;;;;;;5072653;28;20036;-64
2022/04/26 07:57:44;;;;;;;13.90;5.97;;;;;;;;;;5027943;28;20049;-73
2022/04/26 08:00:11;;;;;;;10.60;6.43;;;;;;;;;;5035325;28;20040;-70
2022/04/26 08:02:36;;;;;;;11.52;7.60;;;;;;;;;;5024383;28;20295;-69
2022/04/26 08:05:01;;;;;;;12.43;6.82;;;;;;;;;;5042541;28;20033;-68
2022/04/26 08:07:28;;;;;;;9.13;6.20;;;;;;;;;;5039762;28;20099;-68
2022/04/26 08:09:54;;;;;;;13.10;6.47;;;;;;;;;;5028097;28;20044;-69
2022/04/26 08:12:19;;;;;;;8.02;5.72;;;;;;;;;;5027277;28;20128;-69
2022/04/26 08:14:45;;;;;;;7.73;4.77;;;;;;;15.78;nan;100465.66;5030827;28;20138;-69
2022/04/26 08:17:11;;;;;;;7.53;5.32;;;;;;;;;;5029953;28;20041;-68
2022/04/26 08:19:36;;;;;;;6.28;4.25;;;;;;;;;;5028968;28;20044;-72
2022/04/26 08:22:02;;;;;;;5.83;4.33;;;;;;;;;;5029252;28;20025;-73
2022/04/26 08:27:25;;;;;;;8.05;4.55;;;;;;;;;;5028394;28;20041;-72
2022/04/26 08:29:53;;;;;;;6.57;4.15;;;;;;;;;;5035590;28;20036;-72
2022/04/26 08:32:19;;;;;;;9.17;4.83;;;;;;;;;;5041450;28;20045;-68
2022/04/26 08:34:44;;;;;;;11.05;4.88;;;;;;;;;;5035081;28;20278;-68
2022/04/26 08:37:09;;;;;;;9.52;4.78;;;;;;;;;;5032123;28;20033;-68
2022/04/26 08:39:35;;;;;;;11.70;4.43;;;;;;;;;;5026479;28;20535;-69
2022/04/26 08:42:02;;;;;;;5.05;3.22;;;;;;;;;;5030041;28;20291;-68
2022/04/26 08:44:28;;;;;;;10.63;4.20;;;;;;;;;;5030926;28;20041;-70
2022/04/26 08:52:22;;;;;;;5.45;4.00;;;;;;;16.75;nan;100426.06;5031274;28;20036;-68
2022/04/26 08:54:49;;;;;;;7.28;3.70;;;;;;;;;;5032498;28;20037;-73
2022/04/26 08:57:14;;;;;;;8.10;4.00;;;;;;;;;;5049462;28;20506;-69
2022/04/26 08:59:50;;;;;;;7.65;4.05;;;;;;;;;;5062469;28;20040;-69
2022/04/26 09:02:20;;;;;;;6.13;3.50;;;;;;;;;;5066822;28;20060;-73
2022/04/26 09:04:45;;;;;;;;;;;;;;;;;;5059429;28;20036;-72
2022/04/26 09:07:12;;;;;;;3.95;2.83;;;;;;;;;;5048115;28;20354;-68
2022/04/26 09:09:40;;;;;;;5.10;3.13;;;;;;;;;;5054184;28;20029;-67
2022/04/26 09:12:10;;;;;;;9.00;3.28;;;;;;;;;;5072524;28;20433;-69
2022/04/26 09:14:41;;;;;;;6.82;3.83;;;;;;;;;;5056379;28;20032;-68
2022/04/26 09:17:08;;;;;;;5.75;3.38;;;;;;;;;;5048440;28;20064;-70
2022/04/26 09:19:46;;;;;;;6.35;2.90;;;;;;;;;;5072037;28;20040;-70
2022/04/26 09:22:18;;;;;;;3.75;2.58;;;;;;;;;;5087556;28;20037;-68
2022/04/26 09:24:53;;;;;;;5.68;3.60;;;;;;;;;;5088892;28;20071;-69
2022/04/26 09:27:19;;;;;;;7.57;4.13;;;;;;;;;;5076908;28;20029;-68
2022/04/26 09:29:54;;;;;;;5.83;3.67;;;;;;;17.55;nan;100424.69;5069892;28;20047;-68
2022/04/26 09:32:26;;;;;;;6.60;3.28;;;;;;;;;;5071122;28;20281;-68
2022/04/26 09:34:51;;;;;;;5.82;2.67;;;;;;;;;;5090288;28;20033;-70
2022/04/26 09:37:20;;;;;;;3.75;2.78;;;;;;;;;;5089877;28;20037;-67
2022/04/26 09:40:21;;;;;;;4.23;2.10;;;;;;;;;;5074267;28;20078;-75
2022/04/26 09:42:50;;;;;;;5.70;2.67;;;;;;;17.72;nan;100474.97;5007570;28;20050;-70
2022/04/26 09:45:16;;;;;;;2.92;2.53;;;;;;;;;;5004633;28;20058;-71
2022/04/26 09:47:43;;;;;;;4.85;2.55;;;;;;;17.89;nan;100472.06;4992332;28;20086;-74
2022/04/26 09:50:18;;;;;;;4.35;2.65;;;;;;;;;;4999703;28;20045;-73
2022/04/26 09:52:43;;;;;;;3.05;2.28;;;;;;;;;;4999978;28;20030;-74
2022/04/26 09:55:09;;;;;;;3.90;2.83;;;;;;;;;;5008562;28;20110;-73
2022/04/26 09:57:35;;;;;;;3.70;2.65;;;;;;;;;;4994085;28;20050;-69
2022/04/26 10:00:03;;;;;;;3.22;2.70;;;;;;;;;;4973065;28;20397;-68
2022/04/26 10:02:32;;;;;;;3.08;2.40;;;;;;;;;;4994197;28;20110;-74
2022/04/26 10:05:05;;;;;;;4.55;2.33;;;;;;;18.63;nan;100409.81;5025597;28;20030;-75
2022/04/26 10:07:43;;;;;;;3.53;2.33;;;;;;;;;;4991891;28;20037;-69
2022/04/26 10:10:09;;;;;;;3.20;2.33;;;;;;;18.72;nan;100404.66;4989574;28;20392;-68
2022/04/26 10:12:36;;;;;;;4.20;2.42;;;;;;;18.79;nan;100399.03;4992950;28;20536;-68
2022/04/26 10:15:02;;;;;;;4.10;2.22;;;;;;;;;;4975135;28;20053;-68
2022/04/26 10:17:32;;;;;;;9.18;2.30;;;;;;;18.83;nan;100416.09;5049110;28;20366;-69
2022/04/26 10:19:58;;;;;;;2.85;2.10;;;;;;;;;;5055227;28;20128;-75
2022/04/26 10:22:56;;;;;;;3.90;2.00;;;;;;;18.87;nan;100388.56;5062434;28;20498;-74
2022/04/26 10:25:23;;;;;;;4.68;2.40;;;;;;;18.88;nan;100395.47;5060669;28;20029;-75
2022/04/26 10:28:16;;;;;;;5.18;2.63;;;;;;;18.94;nan;100414.13;5060442;28;20854;-75
2022/04/26 10:30:52;;;;;;;2.67;1.80;;;;;;;19.04;nan;100414.84;5044224;28;20375;-75
2022/04/26 10:33:36;;;;;;;4.25;2.50;;;;;;;19.16;nan;100398.44;5052385;28;20383;-74
2022/04/26 10:36:34;;;;;;;3.35;2.53;;;;;;;19.17;nan;100408.03;5066355;28;20032;-75
2022/04/26 10:39:05;;;;;;;3.67;2.45;;;;;;;19.08;nan;100412.38;5010557;28;20676;-73
2022/04/26 10:41:37;;;;;;;4.32;2.13;;;;;;;19.10;nan;100408.34;5069972;28;20539;-73
2022/04/26 10:44:21;;;;;;;3.90;2.10;;;;;;;19.13;nan;100409.69;5070405;28;20052;-68
2022/04/26 10:46:51;;;;;;;3.30;2.30;;;;;;;19.19;nan;100411.22;5052518;28;20131;-74
2022/04/26 10:49:25;;;;;;;3.25;1.70;;;;;;;19.26;nan;100409.00;5071067;28;20043;-69
2022/04/26 10:51:58;;;;;;;3.83;1.92;;;;;;;19.31;nan;100416.19;5055829;28;20062;-70
2022/04/26 10:54:45;;;;;;;4.72;2.35;;;;;;;19.40;nan;100397.69;5071265;28;20119;-71
2022/04/26 10:57:10;;;;;;;2.58;2.30;;;;;;;;;;5065064;28;20045;-71
2022/04/26 10:59:40;;;;;;;3.25;2.13;;;;;;;19.34;nan;100330.94;5054409;28;20044;-70
2022/04/26 11:02:05;;;;;;;4.13;2.58;;;;;;;;;;5051484;28;20128;-72
2022/04/26 11:04:31;;;;;;;4.72;2.17;;;;;;;19.45;nan;100387.72;5071811;28;20747;-71
2022/04/26 11:06:58;;;;;;;4.47;2.60;;;;;;;;;;5078868;28;20037;-71
2022/04/26 11:09:23;;;;;;;2.45;2.00;;;;;;;19.45;nan;100393.06;5055013;28;20398;-72
2022/04/26 11:11:53;;;;;;;3.15;2.00;;;;;;;19.51;nan;100393.78;5073545;28;20028;-70
2022/04/26 11:14:20;;;;;;;5.28;2.47;;;;;;;19.54;nan;100385.22;5074208;28;20078;-71
2022/04/26 11:16:57;;;;;;;3.22;2.10;;;;;;;19.56;nan;100404.41;5055909;28;20025;-70
2022/04/26 11:19:30;;;;;;;5.28;2.47;;;;;;;19.37;nan;100385.69;5072974;28;20044;-68
2022/04/26 11:21:57;;;;;;;4.10;2.35;;;;;;;19.42;nan;100406.16;5036077;28;20032;-69
2022/04/26 11:29:52;;;;;;;4.03;2.00;;;;;;;;;;5071762;28;20072;-69
2022/04/26 11:32:31;;;;;;;5.40;2.08;;;;;;;19.44;nan;100385.31;5068102;28;20036;-71
2022/04/26 11:34:57;;;;;;;;;;;;;;;19.53;nan;100399.66;5058761;28;20445;-68
2022/04/26 11:37:23;;;;;;;5.60;2.05;;;;;;;19.48;nan;100319.59;5071948;28;19995;-69
2022/04/26 11:39:49;;;;;;;2.58;1.80;;;;;;;19.68;nan;100391.50;5069363;28;20116;-70
2022/04/26 11:42:14;;;;;;;4.00;2.10;;;;;;;19.79;nan;100420.75;5065437;28;20121;-71
2022/04/26 11:44:55;;;;;;;3.58;2.40;;;;;;;;;;5071666;28;20068;-70
2022/04/26 11:47:20;;;;;;;4.22;1.90;;;;;;;;;;5071404;28;20036;-69
2022/04/26 11:49:45;;;;;;;2.28;1.58;;;;;;;20.05;nan;100405.19;5045707;28;20036;-69
2022/04/26 11:52:11;;;;;;;6.68;1.60;;;;;;;20.19;nan;100380.13;5040679;28;20119;-68
2022/04/26 11:54:36;;;;;;;2.80;1.60;;;;;;;20.35;nan;100404.78;5053385;28;20036;-68
2022/04/26 11:57:03;;;;;;;3.45;1.48;;;;;;;;;;5064460;28;20049;-68
2022/04/26 11:59:28;;;;;;;3.85;1.42;;;;;;;;;;5071763;28;20044;-67
2022/04/26 12:01:54;;;;;;;3.85;1.60;;;;;;;20.23;nan;100371.53;5067293;28;20033;-74
2022/04/26 12:04:21;;;;;;;2.40;1.40;;;;;;;20.22;nan;100439.47;5053468;28;20420;-69
2022/04/26 12:06:46;;;;;;;2.10;1.50;;;;;;;;;;5052421;28;20045;-69
2022/04/26 12:09:14;;;;;;;3.00;1.27;;;;;;;20.14;nan;100374.84;5053758;28;20040;-70
2022/04/26 12:11:41;;;;;;;1.60;1.50;;;;;;;19.97;nan;100305.88;5055859;28;20568;-70
2022/04/26 12:14:11;;;;;;;3.15;1.60;;;;;;;20.15;nan;100362.28;5054738;28;20055;-72
2022/04/26 12:16:41;;;;;;;1.73;1.40;;;;;;;20.22;nan;100369.94;5070621;28;20133;-70
2022/04/26 12:19:07;;;;;;;1.20;1.10;;;;;;;20.22;nan;100368.06;5049919;28;20119;-74
2022/04/26 12:21:49;;;;;;;2.15;1.40;;;;;;;20.27;nan;100367.19;5069909;28;20059;-74
2022/04/26 12:24:16;;;;;;;1.88;1.08;;;;;;;20.22;nan;100327.16;5072305;28;20386;-74
2022/04/26 12:26:56;;;;;;;1.63;1.13;;;;;;;20.34;nan;100367.63;5051528;28;20603;-69
2022/04/26 12:29:24;;;;;;;3.42;1.17;;;;;;;20.38;nan;100406.06;5068205;28;20044;-70
2022/04/26 12:31:50;;;;;;;2.05;1.23;;;;;;;20.34;nan;100367.63;5071472;28;20505;-70
2022/04/26 12:34:20;;;;;;;2.90;1.05;;;;;;;20.28;nan;100363.41;5062717;28;20044;-70
2022/04/26 12:36:57;;;;;;;1.70;1.10;;;;;;;20.24;nan;100365.88;5071930;28;20093;-69
2022/04/26 12:39:23;;;;;;;3.20;1.20;;;;;;;;;;5048769;28;20033;-71
2022/04/26 12:41:55;;;;;;;1.73;1.10;;;;;;;20.35;nan;100351.28;5071301;28;20047;-70
2022/04/26 12:44:21;;;;;;;1.17;0.90;;;;;;;;;;5065997;28;20032;-71
2022/04/26 12:52:43;;;;;;;2.00;0.93;;;;;;;20.77;nan;100344.19;5068348;28;20037;-69
2022/04/26 12:55:09;;;;;;;1.67;1.38;;;;;;;20.71;nan;100337.38;5069879;28;20615;-71
2022/04/26 12:57:47;;;;;;;2.65;1.25;;;;;;;;;;5051266;28;20135;-72
2022/04/26 13:00:13;;;;;;;1.10;0.98;;;;;;;20.73;nan;100363.81;5067334;28;20040;-70
2022/04/26 13:02:38;;;;;;;2.65;1.25;;;;;;;20.66;nan;100344.66;5064589;28;20059;-71
2022/04/26 13:05:04;;;;;;;4.70;1.27;;;;;;;20.61;nan;100332.16;5068099;28;20506;-72
2022/04/26 13:07:30;;;;;;;2.80;1.10;;;;;;;20.54;nan;100303.09;5071345;28;20041;-71
2022/04/26 13:09:55;;;;;;;2.00;1.20;;;;;;;20.69;nan;100325.38;5071818;28;20028;-71
2022/04/26 13:12:20;;;;;;;1.25;0.95;;;;;;;20.78;nan;100331.59;5071817;28;20024;-71
2022/04/26 13:14:46;;;;;;;3.28;1.00;;;;;;;20.86;nan;100328.25;5071282;28;20501;-71
2022/04/26 13:17:11;;;;;;;1.77;0.88;;;;;;;20.88;nan;100366.25;5071052;28;20037;-71
2022/04/26 13:19:37;;;;;;;3.15;1.10;;;;;;;20.90;nan;100364.06;5044810;28;20025;-70
2022/04/26 13:22:02;;;;;;;2.17;1.50;;;;;;;21.04;nan;100263.13;5017377;28;20041;-71
2022/04/26 13:24:31;;;;;;;3.53;1.20;;;;;;;;;;5041601;28;20499;-71
2022/04/26 13:26:56;;;;;;;1.57;1.00;;;;;;;21.25;nan;100295.66;5052049;28;20040;-70
2022/04/26 13:29:22;;;;;;;2.60;0.95;;;;;;;21.19;nan;100369.16;5067703;28;20494;-70
2022/04/26 13:31:47;;;;;;;1.17;0.82;;;;;;;21.11;nan;100316.28;5071858;28;20037;-71
2022/04/26 13:34:12;;;;;;;1.10;1.00;;;;;;;21.17;nan;100304.38;5070878;28;20498;-71
2022/04/26 13:36:38;;;;;;;4.15;1.00;;;;;;;21.09;nan;100301.59;5071964;28;20049;-71
2022/04/26 13:39:03;;;;;;;2.85;1.20;;;;;;;;;;5071954;28;20028;-71
2022/04/26 13:41:31;;;;;;;2.75;1.20;;;;;;;20.89;nan;100306.25;5051422;28;20060;-71
2022/04/26 13:43:56;;;;;;;1.52;1.10;;;;;;;20.97;nan;100273.47;5053065;28;20043;-71
2022/04/26 13:46:23;;;;;;;1.75;0.98;;;;;;;21.09;nan;100305.06;5071650;28;20028;-70
2022/04/26 13:48:49;;;;;;;1.67;1.10;;;;;;;21.10;nan;100303.19;5071777;28;20158;-71
2022/04/26 13:51:15;;;;;;;2.45;1.00;;;;;;;21.16;nan;100305.47;5071084;28;20074;-74
2022/04/26 13:53:41;;;;;;;3.53;1.10;;;;;;;21.24;nan;100298.63;5053297;28;20066;-70
2022/04/26 13:56:09;;;;;;;3.85;0.95;;;;;;;21.29;nan;100333.34;5066623;28;20047;-72
2022/04/26 13:58:34;;;;;;;2.95;0.80;;;;;;;;;;5069110;28;20086;-72
2022/04/26 14:00:59;;;;;;;1.67;0.93;;;;;;;21.52;nan;100302.09;5070028;28;20032;-73
2022/04/26 14:03:27;;;;;;;0.77;0.77;;;;;;;21.62;nan;100303.75;5052867;28;20119;-71
2022/04/26 14:05:52;;;;;;;1.42;0.80;;;;;;;;;;5039049;28;20059;-71
2022/04/26 14:08:17;;;;;;;1.23;0.80;;;;;;;21.79;nan;100284.38;5053082;28;20454;-73
2022/04/26 14:10:43;;;;;;;1.50;0.88;;;;;;;21.86;nan;100282.03;5073969;28;20059;-72
2022/04/26 14:13:09;;;;;;;3.08;1.10;;;;;;;21.59;nan;100269.53;5068975;28;20760;-72
2022/04/26 14:23:46;;;;;;;1.65;1.00;;;;;;;21.77;nan;100275.84;5086554;28;20041;-71
2022/04/26 14:26:12;;;;;;;3.58;1.10;;;;;;;21.87;nan;100471.31;5066046;28;20459;-70
2022/04/26 14:28:37;;;;;;;1.45;0.82;;;;;;;21.69;nan;100284.59;5063420;28;20235;-69
2022/04/26 14:31:03;;;;;;;4.32;1.10;;;;;;;21.72;nan;100287.47;5062868;28;20517;-71
2022/04/26 14:33:28;;;;;;;5.10;1.20;;;;;;;21.69;nan;100279.22;5069588;28;20475;-70
2022/04/26 14:35:54;;;;;;;4.22;1.08;;;;;;;21.63;nan;100289.28;5068770;28;20368;-71
2022/04/26 14:38:20;;;;;;;2.05;1.40;;;;;;;21.56;nan;100361.25;5056090;28;20547;-70
2022/04/26 14:40:45;;;;;;;2.05;1.10;;;;;;;21.41;nan;100287.34;5080934;28;20516;-69
2022/04/26 14:43:11;;;;;;;1.80;1.00;;;;;;;21.35;nan;100272.44;5071969;28;20512;-73
2022/04/26 14:45:45;;;;;;;3.60;1.27;;;;;;;21.30;nan;100278.69;5088581;28;20024;-72
2022/04/26 14:48:12;;;;;;;3.05;1.20;;;;;;;21.19;nan;100312.91;5087077;28;20438;-72
2022/04/26 14:50:38;;;;;;;2.03;1.52;;;;;;;21.05;nan;100317.47;5075583;28;20115;-72
2022/04/26 14:53:03;;;;;;;1.77;0.90;;;;;;;;;;5092186;28;20020;-74
2022/04/26 14:55:29;;;;;;;0.97;0.83;;;;;;;21.13;nan;100259.75;5076910;28;20105;-73
2022/04/26 14:57:55;;;;;;;1.20;0.90;;;;;;;21.15;nan;100279.00;5088203;28;20329;-73
2022/04/26 15:00:21;;;;;;;4.18;0.95;;;;;;;;;;5073012;28;20120;-72
2022/04/26 15:02:46;;;;;;;7.22;1.00;;;;;;;21.02;nan;100286.75;5071113;28;20468;-74
2022/04/26 15:05:13;;;;;;;5.60;1.40;;;;;;;20.81;nan;100317.66;5075977;28;20075;-74
2022/04/26 15:10:24;;;;;;;0.65;0.65;;;;;;;21.03;nan;100272.25;5075496;28;20090;-73
2022/04/26 15:18:20;;;;;;;1.88;1.10;;;;;;;20.83;nan;100267.31;5064314;28;20401;-68
2022/04/26 15:20:48;;;;;;;1.90;1.13;;;;;;;20.82;nan;100261.13;5072188;28;20117;-68
2022/04/26 15:23:15;;;;;;;2.60;0.95;;;;;;;20.86;nan;100264.03;5053276;28;20039;-70
2022/04/26 15:25:41;;;;;;;2.55;1.20;;;;;;;20.82;nan;100214.84;5073512;28;20032;-72
2022/04/26 15:28:08;;;;;;;1.58;0.85;;;;;;;20.76;nan;100262.34;5073705;28;20593;-73
2022/04/26 15:30:41;;;;;;;1.23;1.08;;;;;;;20.79;nan;100240.31;5055300;28;20119;-71
2022/04/26 15:33:07;;;;;;;2.15;1.10;;;;;;;20.81;nan;100234.69;5073663;28;20067;-73
2022/04/26 15:35:33;;;;;;;3.30;1.20;;;;;;;20.75;nan;100239.31;5052793;28;20064;-75
2022/04/26 15:37:58;;;;;;;2.20;0.93;;;;;;;;;;5056603;28;20042;-73
2022/04/26 15:40:23;;;;;;;0.98;0.93;;;;;;;20.69;nan;100224.47;5055089;28;20102;-72
2022/04/26 15:42:49;;;;;;;1.20;1.10;;;;;;;20.63;nan;100246.25;5072654;28;20118;-72
2022/04/26 15:45:14;;;;;;;2.42;1.10;;;;;;;20.56;nan;100249.31;5045970;28;20040;-75
2022/04/26 15:47:40;;;;;;;3.20;1.98;;;;;;;20.54;nan;100184.59;5073281;28;20474;-73
2022/04/26 15:50:06;;;;;;;2.13;1.50;;;;;;;20.48;nan;100282.88;5059345;28;20394;-72
2022/04/26 15:52:32;;;;;;;1.42;1.15;;;;;;;20.50;nan;100239.78;5046102;28;20031;-71
2022/04/26 15:54:57;;;;;;;1.88;1.20;;;;;;;20.39;nan;100252.53;5047865;28;20045;-72
2022/04/26 15:57:23;;;;;;;1.55;1.15;;;;;;;20.40;nan;100256.81;5051515;28;20056;-72
2022/04/26 15:59:48;;;;;;;1.42;1.17;;;;;;;20.31;nan;100243.31;5050576;28;20060;-72
2022/04/26 16:02:16;;;;;;;3.50;1.30;;;;;;;20.31;nan;100245.97;5044538;28;20063;-73
2022/04/26 16:04:44;;;;;;;3.13;1.50;;;;;;;;;;5057870;28;20043;-71
2022/04/26 16:07:10;;;;;;;1.23;1.13;;;;;;;20.12;nan;100245.25;5039360;28;20046;-72
2022/04/26 16:20:34;;;;;;;4.82;1.40;;;;;;;20.05;nan;100242.94;5072522;28;20052;-71
2022/04/26 16:23:01;;;;;;;3.53;1.17;;;;;;;;;;5049982;28;20033;-73
2022/04/26 16:25:26;;;;;;;2.08;1.10;;;;;;;20.01;nan;100251.81;5061491;28;20052;-72
2022/04/26 16:27:52;;;;;;;1.40;1.10;;;;;;;19.93;nan;100242.59;5062378;28;20040;-72
2022/04/26 16:30:18;;;;;;;3.67;1.20;;;;;;;19.79;nan;100205.13;5065337;28;20070;-70
2022/04/26 16:32:43;;;;;;;2.38;1.20;;;;;;;;;;5050438;28;20032;-72
2022/04/26 16:35:12;;;;;;;1.63;1.27;;;;;;;19.68;nan;100249.91;5073141;28;20859;-75
2022/04/26 16:37:38;;;;;;;;;;;;;;;19.68;nan;100247.25;5051383;28;20147;-72
2022/04/26 16:40:05;;;;;;;5.38;1.58;;;;;;;19.64;nan;100226.72;5070181;28;20430;-72
2022/04/26 16:42:30;;;;;;;1.92;1.40;;;;;;;19.65;nan;100229.06;5053871;28;20394;-71
2022/04/26 16:44:56;;;;;;;3.30;1.77;;;;;;;19.64;nan;100250.75;5071755;28;20086;-70
2022/04/26 16:47:22;;;;;;;4.43;1.52;;;;;;;19.50;nan;100224.75;5060307;28;20036;-72
2022/04/26 16:49:47;;;;;;;4.07;1.60;;;;;;;19.48;nan;100276.84;5049729;28;20420;-71
2022/04/26 16:52:15;;;;;;;2.83;1.52;;;;;;;19.43;nan;100196.81;5051006;28;20673;-70
2022/04/26 16:54:41;;;;;;;4.72;1.80;;;;;;;19.49;nan;100263.22;5059257;28;20036;-71
2022/04/26 16:57:07;;;;;;;3.55;1.58;;;;;;;;;;5071612;28;20045;-72
2022/04/26 16:59:32;;;;;;;3.67;1.80;;;;;;;;;;5048818;28;20044;-71
2022/04/26 17:01:58;;;;;;;2.10;1.70;;;;;;;19.39;nan;100241.97;5070390;28;20163;-69
2022/04/26 17:04:24;;;;;;;4.32;1.88;;;;;;;19.29;nan;100306.97;5051736;28;20920;-70
2022/04/26 17:06:49;;;;;;;1.98;1.42;;;;;;;19.27;nan;100265.63;5052672;28;20119;-71
2022/04/26 17:09:16;;;;;;;4.22;1.80;;;;;;;19.23;nan;100268.09;5046009;28;20123;-69
2022/04/26 17:11:42;;;;;;;2.45;1.52;;;;;;;19.19;nan;100256.38;5051730;28;20032;-70
2022/04/26 17:14:13;;;;;;;3.95;1.60;;;;;;;19.16;nan;100267.66;5064853;28;20526;-73
2022/04/26 17:16:39;;;;;;;4.03;1.65;;;;;;;;;;5049276;28;20060;-71